Time,TemperatureF,DewpointF,PressureIn,WindDirection,WindDirectionDegrees,WindSpeedMPH,WindSpeedGustMPH,Humidity,HourlyPrecipIn,Conditions,Clouds,dailyrainin,SoftwareType,DateUTC
2013-04-29 00:01:00,71.6,71.6,29.97,NNW,344,0.0,0.0,100,0.08,,---,0.00,VWS V14.01,2013-04-29 04:01:00,
2013-04-29 00:06:00,71.6,71.6,29.97,NNW,345,0.0,0.0,100,0.08,,---,0.00,VWS V14.01,2013-04-29 04:06:00,
2013-04-29 00:11:00,71.4,71.4,29.97,NNW,344,0.0,0.0,100,0.04,,---,0.00,VWS V14.01,2013-04-29 04:11:00,
2013-04-29 00:16:00,71.4,71.4,29.97,NNW,344,0.0,0.0,100,0.00,,---,0.00,VWS V14.01,2013-04-29 04:16:00,
2013-04-29 00:21:00,71.6,71.6,29.97,NNW,345,0.0,0.0,100,0.00,,---,0.00,VWS V14.01,2013-04-29 04:21:00,
2013-04-29 00:26:00,71.4,71.4,29.97,NNW,344,0.0,0.0,100,0.00,,---,0.00,VWS V14.01,2013-04-29 04:26:00,
2013-04-29 00:31:00,71.6,71.6,29.97,NNW,344,0.0,0.0,100,0.00,,---,0.00,VWS V14.01,2013-04-29 04:31:00,
2013-04-29 00:36:00,71.6,71.6,29.97,NNW,344,0.0,0.0,100,0.00,,---,0.00,VWS V14.01,2013-04-29 04:36:00,
2013-04-29 00:41:00,71.6,71.6,29.97,NNW,345,0.0,0.0,100,0.00,,---,0.00,VWS V14.01,2013-04-29 04:41:00,
2013-04-29 00:46:00,71.4,71.4,29.97,NNW,344,0.0,0.0,100,0.00,,---,0.00,VWS V14.01,2013-04-29 04:46:00,
2013-04-29 00:51:00,71.4,71.4,29.97,North,3,0.0,0.0,100,0.00,,---,0.00,VWS V14.01,2013-04-29 04:51:00,
2013-04-29 00:56:00,71.2,71.2,29.97,NE,55,0.0,0.0,100,0.00,,---,0.00,VWS V14.01,2013-04-29 04:56:00,
2013-04-29 01:01:00,71.1,71.1,29.97,NNE,30,0.0,0.0,100,0.00,,---,0.00,VWS V14.01,2013-04-29 05:01:00,
2013-04-29 01:06:00,70.7,70.7,29.97,ESE,110,0.0,0.0,100,0.00,,---,0.00,VWS V14.01,2013-04-29 05:06:00,
2013-04-29 01:11:00,70.2,70.2,29.97,North,357,3.6,3.6,100,0.00,,---,0.00,VWS V14.01,2013-04-29 05:11:00,
2013-04-29 01:16:00,69.8,69.8,29.94,NE,45,0.0,0.0,100,0.00,,---,0.00,VWS V14.01,2013-04-29 05:16:00,
2013-04-29 01:21:00,69.6,69.6,29.94,NNE,25,0.0,0.0,100,0.00,,---,0.00,VWS V14.01,2013-04-29 05:21:00,
2013-04-29 01:26:00,69.4,69.4,29.94,NW,316,0.0,0.0,100,0.00,,---,0.00,VWS V14.01,2013-04-29 05:26:00,
2013-04-29 01:31:00,69.1,69.1,29.94,NNE,25,0.0,0.0,100,0.00,,---,0.00,VWS V14.01,2013-04-29 05:31:00,
2013-04-29 01:36:00,68.9,68.9,29.94,NE,37,0.0,0.0,100,0.00,,---,0.00,VWS V14.01,2013-04-29 05:36:00,
2013-04-29 01:41:00,68.9,68.9,29.94,NNE,21,0.0,0.0,100,0.00,,---,0.00,VWS V14.01,2013-04-29 05:41:00,
2013-04-29 01:46:00,68.7,68.7,29.94,North,357,0.0,2.7,100,0.00,,---,0.00,VWS V14.01,2013-04-29 05:46:00,
2013-04-29 01:51:00,68.7,68.7,29.94,East,89,0.0,0.0,100,0.00,,---,0.00,VWS V14.01,2013-04-29 05:51:00,
2013-04-29 01:56:00,68.7,68.7,29.94,NNW,342,0.0,0.0,100,0.00,,---,0.00,VWS V14.01,2013-04-29 05:56:00,
2013-04-29 02:01:00,68.7,68.7,29.94,North,357,0.0,2.7,100,0.00,,---,0.00,VWS V14.01,2013-04-29 06:01:00,
2013-04-29 02:06:00,68.7,68.7,29.94,NW,323,0.0,0.0,100,0.00,,---,0.00,VWS V14.01,2013-04-29 06:06:00,
2013-04-29 02:11:00,68.7,68.7,29.94,WSW,246,0.0,0.0,100,0.00,,---,0.00,VWS V14.01,2013-04-29 06:11:00,
2013-04-29 02:16:00,69.1,69.1,29.94,North,2,0.0,2.2,100,0.00,,---,0.00,VWS V14.01,2013-04-29 06:16:00,
2013-04-29 02:21:00,69.3,69.3,29.94,North,11,0.0,3.1,100,0.00,,---,0.00,VWS V14.01,2013-04-29 06:21:00,
2013-04-29 02:26:00,69.4,69.2,29.94,North,2,2.7,2.7,99,0.00,,---,0.00,VWS V14.01,2013-04-29 06:26:00,
2013-04-29 02:31:00,69.6,68.7,29.94,ENE,64,0.0,0.0,97,0.00,,---,0.00,VWS V14.01,2013-04-29 06:31:00,
2013-04-29 02:36:00,69.6,68.1,29.94,NE,50,2.7,2.7,95,0.00,,---,0.00,VWS V14.01,2013-04-29 06:36:00,
2013-04-29 02:41:00,69.6,67.5,29.94,West,274,2.2,2.2,93,0.00,,---,0.00,VWS V14.01,2013-04-29 06:41:00,
2013-04-29 02:46:00,69.8,66.7,29.94,NE,54,2.2,4.0,90,0.00,,---,0.00,VWS V14.01,2013-04-29 06:46:00,
2013-04-29 02:51:00,69.8,66.1,29.94,NNW,330,0.0,2.7,88,0.00,,---,0.00,VWS V14.01,2013-04-29 06:51:00,
2013-04-29 02:56:00,70.0,65.9,29.94,SSE,153,0.0,0.0,87,0.00,,---,0.00,VWS V14.01,2013-04-29 06:56:00,
2013-04-29 03:01:00,70.2,65.1,29.94,WNW,294,0.0,0.0,84,0.00,,---,0.00,VWS V14.01,2013-04-29 07:01:00,
2013-04-29 03:06:00,70.2,64.8,29.94,SE,137,0.0,0.0,83,0.00,,---,0.00,VWS V14.01,2013-04-29 07:06:00,
2013-04-29 03:11:00,70.2,64.4,29.94,NE,48,0.0,2.2,82,0.00,,---,0.00,VWS V14.01,2013-04-29 07:11:00,
2013-04-29 03:16:00,70.2,64.4,29.94,North,3,2.2,2.2,82,0.00,,---,0.00,VWS V14.01,2013-04-29 07:16:00,
2013-04-29 03:21:00,70.2,64.1,29.94,WNW,286,0.0,0.0,81,0.00,,---,0.00,VWS V14.01,2013-04-29 07:21:00,
2013-04-29 03:26:00,70.2,64.1,29.94,South,185,0.0,0.0,81,0.00,,---,0.00,VWS V14.01,2013-04-29 07:26:00,
2013-04-29 03:31:00,70.2,64.1,29.94,South,189,0.0,0.0,81,0.00,,---,0.00,VWS V14.01,2013-04-29 07:31:00,
2013-04-29 03:36:00,70.3,63.9,29.94,SW,216,0.0,0.0,80,0.00,,---,0.00,VWS V14.01,2013-04-29 07:36:00,
2013-04-29 03:41:00,70.3,63.5,29.94,West,279,0.0,0.0,79,0.00,,---,0.00,VWS V14.01,2013-04-29 07:41:00,
2013-04-29 03:46:00,70.3,63.2,29.94,SW,236,0.0,0.0,78,0.00,,---,0.00,VWS V14.01,2013-04-29 07:46:00,
2013-04-29 03:51:00,70.5,62.6,29.94,WSW,239,0.0,0.0,76,0.00,,---,0.00,VWS V14.01,2013-04-29 07:51:00,
2013-04-29 03:56:00,70.5,62.2,29.94,SSE,154,0.0,0.0,75,0.00,,---,0.00,VWS V14.01,2013-04-29 07:56:00,
2013-04-29 04:01:00,70.5,61.8,29.94,SSE,152,0.0,0.0,74,0.00,,---,0.00,VWS V14.01,2013-04-29 08:01:00,
2013-04-29 04:06:00,70.5,61.8,29.94,SSE,152,0.0,0.0,74,0.00,,---,0.00,VWS V14.01,2013-04-29 08:06:00,
2013-04-29 04:11:00,70.5,61.8,29.94,SW,221,0.0,0.0,74,0.00,,---,0.00,VWS V14.01,2013-04-29 08:11:00,
2013-04-29 04:16:00,70.5,61.8,29.94,SW,221,0.0,0.0,74,0.00,,---,0.00,VWS V14.01,2013-04-29 08:16:00,
2013-04-29 04:21:00,70.3,62.0,29.94,SW,220,0.0,0.0,75,0.00,,---,0.00,VWS V14.01,2013-04-29 08:21:00,
2013-04-29 04:26:00,70.3,61.7,29.94,SW,221,0.0,0.0,74,0.00,,---,0.00,VWS V14.01,2013-04-29 08:26:00,
2013-04-29 04:31:00,70.2,61.9,29.94,NNE,33,0.0,2.2,75,0.00,,---,0.00,VWS V14.01,2013-04-29 08:31:00,
2013-04-29 04:36:00,70.2,62.2,29.94,WNW,294,0.0,0.0,76,0.00,,---,0.00,VWS V14.01,2013-04-29 08:36:00,
2013-04-29 04:41:00,70.2,62.2,29.94,WNW,294,0.0,0.0,76,0.00,,---,0.00,VWS V14.01,2013-04-29 08:41:00,
2013-04-29 04:46:00,70.2,62.2,29.94,WNW,294,0.0,0.0,76,0.00,,---,0.00,VWS V14.01,2013-04-29 08:46:00,
2013-04-29 04:51:00,70.0,62.5,29.94,WNW,294,0.0,0.0,77,0.00,,---,0.00,VWS V14.01,2013-04-29 08:51:00,
2013-04-29 04:56:00,70.0,62.8,29.94,NNE,22,0.0,0.0,78,0.00,,---,0.00,VWS V14.01,2013-04-29 08:56:00,
2013-04-29 05:01:00,70.0,62.8,29.91,ESE,102,0.0,0.0,78,0.00,,---,0.00,VWS V14.01,2013-04-29 09:01:00,
2013-04-29 05:06:00,70.0,62.5,29.91,NE,48,0.0,0.0,77,0.00,,---,0.00,VWS V14.01,2013-04-29 09:06:00,
2013-04-29 05:11:00,70.0,62.5,29.91,NE,48,0.0,0.0,77,0.00,,---,0.00,VWS V14.01,2013-04-29 09:11:00,
2013-04-29 05:16:00,70.0,62.5,29.91,NE,48,0.0,0.0,77,0.00,,---,0.00,VWS V14.01,2013-04-29 09:16:00,
2013-04-29 05:21:00,70.0,62.5,29.91,WNW,285,0.0,0.0,77,0.00,,---,0.00,VWS V14.01,2013-04-29 09:21:00,
2013-04-29 05:26:00,70.0,62.5,29.91,NW,305,0.0,2.2,77,0.00,,---,0.00,VWS V14.01,2013-04-29 09:26:00,
2013-04-29 05:31:00,70.0,62.1,29.94,NW,305,0.0,0.0,76,0.00,,---,0.00,VWS V14.01,2013-04-29 09:31:00,
2013-04-29 05:36:00,69.8,61.5,29.94,WNW,289,0.0,0.0,75,0.00,,---,0.00,VWS V14.01,2013-04-29 09:36:00,
2013-04-29 05:41:00,69.8,60.8,29.94,WNW,290,0.0,0.0,73,0.00,,---,0.00,VWS V14.01,2013-04-29 09:41:00,
2013-04-29 05:46:00,69.8,60.8,29.94,WNW,290,0.0,0.0,73,0.00,,---,0.00,VWS V14.01,2013-04-29 09:46:00,
2013-04-29 05:51:00,69.6,61.0,29.94,West,275,0.0,0.0,74,0.00,,---,0.00,VWS V14.01,2013-04-29 09:51:00,
2013-04-29 05:56:00,69.4,60.8,29.94,SSW,212,0.0,0.0,74,0.00,,---,0.00,VWS V14.01,2013-04-29 09:56:00,
2013-04-29 06:01:00,69.3,60.6,29.94,SSW,212,0.0,0.0,74,0.00,,---,0.00,VWS V14.01,2013-04-29 10:01:00,
2013-04-29 06:06:00,69.3,61.0,29.94,SSW,212,0.0,0.0,75,0.00,,---,0.00,VWS V14.01,2013-04-29 10:06:00,
2013-04-29 06:11:00,68.9,61.4,29.94,SSW,212,0.0,0.0,77,0.00,,---,0.00,VWS V14.01,2013-04-29 10:11:00,
2013-04-29 06:16:00,67.8,62.5,29.94,SSW,211,0.0,0.0,83,0.04,,---,0.04,VWS V14.01,2013-04-29 10:16:00,
2013-04-29 06:21:00,67.3,63.0,29.94,SSW,211,0.0,0.0,86,0.04,,---,0.04,VWS V14.01,2013-04-29 10:21:00,
2013-04-29 06:26:00,67.1,63.4,29.94,SSW,212,0.0,0.0,88,0.04,,---,0.04,VWS V14.01,2013-04-29 10:26:00,
2013-04-29 06:31:00,67.1,64.4,29.91,SSW,195,0.0,0.0,91,0.04,,---,0.04,VWS V14.01,2013-04-29 10:31:00,
2013-04-29 06:36:00,67.1,64.7,29.91,North,5,0.0,0.0,92,0.04,,---,0.04,VWS V14.01,2013-04-29 10:36:00,
2013-04-29 06:41:00,67.1,65.0,29.91,North,5,0.0,0.0,93,0.04,,---,0.04,VWS V14.01,2013-04-29 10:41:00,
2013-04-29 06:46:00,67.3,65.5,29.91,North,5,0.0,0.0,94,0.04,,---,0.04,VWS V14.01,2013-04-29 10:46:00,
2013-04-29 06:51:00,67.3,65.8,29.91,North,5,0.0,0.0,95,0.04,,---,0.04,VWS V14.01,2013-04-29 10:51:00,
2013-04-29 06:55:00,67.3,66.1,29.91,North,5,0.0,0.0,96,0.04,,---,0.04,VWS V14.01,2013-04-29 10:55:00,
2013-04-29 07:00:00,67.5,66.6,29.94,North,5,0.0,0.0,97,0.04,,---,0.04,VWS V14.01,2013-04-29 11:00:00,
2013-04-29 07:05:00,67.3,66.7,29.94,North,5,0.0,0.0,98,0.04,,---,0.04,VWS V14.01,2013-04-29 11:05:00,
2013-04-29 07:10:00,67.3,67.0,29.94,North,5,0.0,0.0,99,0.04,,---,0.04,VWS V14.01,2013-04-29 11:10:00,
2013-04-29 07:15:00,67.3,67.3,29.94,North,5,0.0,0.0,100,0.00,,---,0.04,VWS V14.01,2013-04-29 11:15:00,
2013-04-29 07:20:00,67.5,67.5,29.94,North,5,0.0,0.0,100,0.00,,---,0.04,VWS V14.01,2013-04-29 11:20:00,
2013-04-29 07:25:00,67.5,67.5,29.94,North,5,0.0,0.0,100,0.00,,---,0.04,VWS V14.01,2013-04-29 11:25:00,
2013-04-29 07:30:00,67.6,67.6,29.94,North,5,0.0,0.0,100,0.00,,---,0.04,VWS V14.01,2013-04-29 11:30:00,
2013-04-29 07:35:00,67.8,67.8,29.94,North,5,0.0,0.0,100,0.00,,---,0.04,VWS V14.01,2013-04-29 11:35:00,
2013-04-29 07:40:00,67.8,67.8,29.94,North,5,0.0,0.0,100,0.00,,---,0.04,VWS V14.01,2013-04-29 11:40:00,
2013-04-29 07:45:00,68.0,68.0,29.94,North,4,0.0,0.0,100,0.00,,---,0.04,VWS V14.01,2013-04-29 11:45:00,
2013-04-29 07:50:00,68.2,68.2,29.94,NE,44,0.0,0.0,100,0.00,,---,0.04,VWS V14.01,2013-04-29 11:50:00,
2013-04-29 07:55:00,68.4,68.4,29.94,North,7,0.0,0.0,100,0.00,,---,0.04,VWS V14.01,2013-04-29 11:55:00,
2013-04-29 08:00:00,68.5,68.5,29.94,NNE,27,0.0,0.0,100,0.00,,---,0.04,VWS V14.01,2013-04-29 12:00:00,
2013-04-29 08:05:00,68.7,68.7,29.94,NNE,23,0.0,0.0,100,0.00,,---,0.04,VWS V14.01,2013-04-29 12:05:00,
2013-04-29 08:10:00,68.9,68.9,29.94,NE,49,0.0,0.0,100,0.00,,---,0.04,VWS V14.01,2013-04-29 12:10:00,
2013-04-29 08:15:00,69.1,69.1,29.94,North,1,0.0,0.0,100,0.00,,---,0.04,VWS V14.01,2013-04-29 12:15:00,
2013-04-29 08:20:00,69.4,69.4,29.94,East,93,0.0,2.7,100,0.00,,---,0.04,VWS V14.01,2013-04-29 12:20:00,
2013-04-29 08:25:00,69.6,69.6,29.94,NNE,23,0.0,0.0,100,0.00,,---,0.04,VWS V14.01,2013-04-29 12:25:00,
2013-04-29 08:30:00,70.0,70.0,29.94,NE,34,0.0,0.0,100,0.00,,---,0.04,VWS V14.01,2013-04-29 12:30:00,
2013-04-29 08:35:00,70.2,69.6,29.94,SSE,158,0.0,0.0,98,0.00,,---,0.04,VWS V14.01,2013-04-29 12:35:00,
2013-04-29 08:40:00,70.5,69.6,29.94,North,357,0.0,2.7,97,0.00,,---,0.04,VWS V14.01,2013-04-29 12:40:00,
2013-04-29 08:45:00,70.9,69.4,29.94,NNW,337,3.1,3.1,95,0.00,,---,0.04,VWS V14.01,2013-04-29 12:45:00,
2013-04-29 08:50:00,71.2,69.1,29.94,North,5,2.2,3.1,93,0.00,,---,0.04,VWS V14.01,2013-04-29 12:50:00,
2013-04-29 08:55:00,71.6,68.5,29.94,NE,55,3.1,3.1,90,0.00,,---,0.04,VWS V14.01,2013-04-29 12:55:00,
2013-04-29 09:00:00,71.8,68.4,29.94,North,9,0.0,4.9,89,0.00,,---,0.04,VWS V14.01,2013-04-29 13:00:00,
2013-04-29 09:05:00,72.1,67.7,29.94,NE,50,0.0,3.6,86,0.00,,---,0.04,VWS V14.01,2013-04-29 13:05:00,
2013-04-29 09:10:00,72.3,66.5,29.94,North,2,5.4,5.4,82,0.00,,---,0.04,VWS V14.01,2013-04-29 13:10:00,
2013-04-29 09:15:00,72.5,65.6,29.94,ENE,66,3.1,3.1,79,0.00,,---,0.04,VWS V14.01,2013-04-29 13:15:00,
2013-04-29 09:20:00,72.7,65.4,29.94,SW,234,4.0,4.0,78,0.00,,---,0.04,VWS V14.01,2013-04-29 13:20:00,
2013-04-29 09:25:00,72.9,64.9,29.94,West,272,2.7,2.7,76,0.00,,---,0.04,VWS V14.01,2013-04-29 13:25:00,
2013-04-29 09:30:00,73.0,64.7,29.94,SSE,152,3.1,3.1,75,0.00,,---,0.04,VWS V14.01,2013-04-29 13:30:00,
2013-04-29 09:35:00,73.2,64.8,29.94,SE,134,3.1,4.0,75,0.00,,---,0.04,VWS V14.01,2013-04-29 13:35:00,
2013-04-29 09:40:00,73.6,65.2,29.94,North,349,3.6,3.6,75,0.00,,---,0.04,VWS V14.01,2013-04-29 13:40:00,
2013-04-29 09:45:00,73.8,64.6,29.94,ENE,71,3.6,7.6,73,0.00,,---,0.04,VWS V14.01,2013-04-29 13:45:00,
2013-04-29 09:50:00,74.1,64.5,29.94,SW,235,2.2,2.2,72,0.00,,---,0.04,VWS V14.01,2013-04-29 13:50:00,
2013-04-29 09:55:00,74.3,64.3,29.94,SSE,161,4.0,4.0,71,0.00,,---,0.04,VWS V14.01,2013-04-29 13:55:00,
2013-04-29 10:00:00,74.7,64.6,29.97,South,181,2.7,4.9,71,0.00,,---,0.04,VWS V14.01,2013-04-29 14:00:00,
2013-04-29 10:05:00,74.8,64.4,29.97,NNW,341,3.1,3.1,70,0.00,,---,0.04,VWS V14.01,2013-04-29 14:05:00,
2013-04-29 10:10:00,75.2,64.8,29.97,South,185,3.6,3.6,70,0.00,,---,0.04,VWS V14.01,2013-04-29 14:10:00,
2013-04-29 10:15:00,75.2,64.3,29.97,SSE,155,0.0,2.2,69,0.00,,---,0.04,VWS V14.01,2013-04-29 14:15:00,
2013-04-29 10:20:00,75.6,64.3,29.97,North,5,0.0,2.2,68,0.00,,---,0.04,VWS V14.01,2013-04-29 14:20:00,
2013-04-29 10:25:00,76.1,64.4,29.97,North,5,3.6,3.6,67,0.00,,---,0.04,VWS V14.01,2013-04-29 14:25:00,
2013-04-29 10:30:00,76.1,63.9,29.94,East,97,4.0,4.0,66,0.00,,---,0.04,VWS V14.01,2013-04-29 14:30:00,
2013-04-29 10:35:00,76.3,64.1,29.94,SE,135,3.6,3.6,66,0.00,,---,0.04,VWS V14.01,2013-04-29 14:35:00,
2013-04-29 10:40:00,76.6,65.3,29.94,SE,140,0.0,4.0,68,0.00,,---,0.04,VWS V14.01,2013-04-29 14:40:00,
2013-04-29 10:45:00,76.8,64.6,29.94,SSE,164,2.7,2.7,66,0.00,,---,0.04,VWS V14.01,2013-04-29 14:45:00,
2013-04-29 10:50:00,77.0,64.3,29.94,WSW,249,3.1,3.1,65,0.00,,---,0.04,VWS V14.01,2013-04-29 14:50:00,
2013-04-29 10:55:00,77.2,64.5,29.94,ENE,59,2.7,2.7,65,0.00,,---,0.04,VWS V14.01,2013-04-29 14:55:00,
2013-04-29 11:00:00,77.2,64.1,29.94,NNE,28,3.1,3.1,64,0.00,,---,0.04,VWS V14.01,2013-04-29 15:00:00,
2013-04-29 11:05:00,77.4,64.2,29.94,ESE,108,3.1,3.1,64,0.00,,---,0.04,VWS V14.01,2013-04-29 15:05:00,
2013-04-29 11:10:00,77.4,64.2,29.94,NNE,21,3.1,3.1,64,0.00,,---,0.04,VWS V14.01,2013-04-29 15:10:00,
2013-04-29 11:15:00,77.9,64.8,29.94,ENE,69,2.7,3.6,64,0.00,,---,0.04,VWS V14.01,2013-04-29 15:15:00,
2013-04-29 11:20:00,78.4,66.2,29.94,North,5,3.1,3.1,66,0.00,,---,0.04,VWS V14.01,2013-04-29 15:20:00,
2013-04-29 11:25:00,79.0,65.8,29.94,NE,48,0.0,0.0,64,0.00,,---,0.04,VWS V14.01,2013-04-29 15:25:00,
2013-04-29 11:30:00,79.3,65.7,29.94,ESE,115,2.7,2.7,63,0.00,,---,0.04,VWS V14.01,2013-04-29 15:30:00,
2013-04-29 11:35:00,79.3,65.2,29.94,SW,230,2.7,4.9,62,0.00,,---,0.04,VWS V14.01,2013-04-29 15:35:00,
2013-04-29 11:40:00,79.5,65.4,29.94,West,275,2.2,2.7,62,0.00,,---,0.04,VWS V14.01,2013-04-29 15:40:00,
2013-04-29 11:45:00,79.5,65.4,29.97,North,357,2.7,4.0,62,0.00,,---,0.04,VWS V14.01,2013-04-29 15:45:00,
2013-04-29 11:50:00,79.9,65.7,29.97,SE,129,2.2,5.8,62,0.00,,---,0.04,VWS V14.01,2013-04-29 15:50:00,
2013-04-29 11:55:00,79.9,64.8,29.97,SSE,167,2.7,2.7,60,0.00,,---,0.04,VWS V14.01,2013-04-29 15:55:00,
2013-04-29 12:00:00,80.1,65.4,29.97,NNE,18,3.6,3.6,61,0.00,,---,0.04,VWS V14.01,2013-04-29 16:00:00,
2013-04-29 12:05:00,80.2,65.6,29.97,SE,142,0.0,0.0,61,0.00,,---,0.04,VWS V14.01,2013-04-29 16:05:00,
2013-04-29 12:10:00,80.4,65.8,29.97,NNE,23,2.7,2.7,61,0.00,,---,0.04,VWS V14.01,2013-04-29 16:10:00,
2013-04-29 12:15:00,80.4,65.3,29.97,WNW,294,2.7,2.7,60,0.00,,---,0.04,VWS V14.01,2013-04-29 16:15:00,
2013-04-29 12:20:00,80.4,65.8,29.97,NNE,31,2.7,3.1,61,0.00,,---,0.04,VWS V14.01,2013-04-29 16:20:00,
2013-04-29 12:25:00,80.6,65.4,29.97,South,175,3.1,4.5,60,0.00,,---,0.04,VWS V14.01,2013-04-29 16:25:00,
2013-04-29 12:30:00,81.0,65.8,29.94,WNW,293,3.6,3.6,60,0.00,,---,0.04,VWS V14.01,2013-04-29 16:30:00,
2013-04-29 12:35:00,80.8,65.6,29.94,NE,52,4.0,4.0,60,0.00,,---,0.04,VWS V14.01,2013-04-29 16:35:00,
2013-04-29 12:40:00,80.4,65.3,29.94,ESE,107,2.2,2.2,60,0.00,,---,0.04,VWS V14.01,2013-04-29 16:40:00,
2013-04-29 12:45:00,80.1,64.9,29.94,SSW,202,0.0,0.0,60,0.00,,---,0.04,VWS V14.01,2013-04-29 16:45:00,
2013-04-29 12:50:00,79.9,64.8,29.94,East,91,2.2,2.2,60,0.00,,---,0.04,VWS V14.01,2013-04-29 16:50:00,
2013-04-29 12:55:00,80.1,64.9,29.94,North,2,0.0,0.0,60,0.00,,---,0.04,VWS V14.01,2013-04-29 16:55:00,
2013-04-29 13:00:00,80.1,65.4,29.94,SE,128,3.6,3.6,61,0.00,,---,0.04,VWS V14.01,2013-04-29 17:00:00,
2013-04-29 13:05:00,80.2,65.6,29.94,ENE,59,2.7,2.7,61,0.00,,---,0.04,VWS V14.01,2013-04-29 17:05:00,
2013-04-29 13:10:00,80.6,65.9,29.94,NE,39,4.9,4.9,61,0.00,,---,0.04,VWS V14.01,2013-04-29 17:10:00,
2013-04-29 13:15:00,81.0,65.8,29.94,SE,146,2.7,2.7,60,0.00,,---,0.04,VWS V14.01,2013-04-29 17:15:00,
2013-04-29 13:20:00,81.1,65.9,29.94,SSW,196,0.0,2.7,60,0.00,,---,0.04,VWS V14.01,2013-04-29 17:20:00,
2013-04-29 13:25:00,81.1,65.9,29.94,North,357,2.2,2.2,60,0.00,,---,0.04,VWS V14.01,2013-04-29 17:25:00,
2013-04-29 13:30:00,81.0,65.3,29.94,SSE,154,3.1,3.6,59,0.00,,---,0.04,VWS V14.01,2013-04-29 17:30:00,
2013-04-29 13:35:00,80.6,65.0,29.94,SSW,211,0.0,0.0,59,0.00,,---,0.04,VWS V14.01,2013-04-29 17:35:00,
2013-04-29 13:40:00,80.4,64.8,29.94,NE,44,2.7,2.7,59,0.00,,---,0.04,VWS V14.01,2013-04-29 17:40:00,
2013-04-29 13:45:00,80.2,64.6,29.94,SW,227,0.0,2.2,59,0.00,,---,0.04,VWS V14.01,2013-04-29 17:45:00,
2013-04-29 13:50:00,80.2,64.1,29.94,SW,221,0.0,0.0,58,0.00,,---,0.04,VWS V14.01,2013-04-29 17:50:00,
2013-04-29 13:55:00,80.1,64.0,29.94,WSW,245,2.2,2.7,58,0.00,,---,0.04,VWS V14.01,2013-04-29 17:55:00,
2013-04-29 14:00:00,80.2,64.6,29.94,SW,220,3.1,3.1,59,0.00,,---,0.04,VWS V14.01,2013-04-29 18:00:00,
2013-04-29 14:05:00,80.1,64.9,29.94,SW,224,2.2,2.7,60,0.00,,---,0.04,VWS V14.01,2013-04-29 18:05:00,
2013-04-29 14:10:00,79.9,65.2,29.94,West,259,3.1,4.0,61,0.00,,---,0.04,VWS V14.01,2013-04-29 18:10:00,
2013-04-29 14:15:00,79.9,65.2,29.91,SE,132,0.0,0.0,61,0.00,,---,0.04,VWS V14.01,2013-04-29 18:15:00,
2013-04-29 14:20:00,79.9,65.7,29.91,South,190,4.0,5.8,62,0.00,,---,0.04,VWS V14.01,2013-04-29 18:20:00,
2013-04-29 14:25:00,79.9,65.7,29.91,SW,216,0.0,0.0,62,0.00,,---,0.04,VWS V14.01,2013-04-29 18:25:00,
2013-04-29 14:30:00,79.7,65.5,29.91,South,173,5.8,5.8,62,0.00,,---,0.04,VWS V14.01,2013-04-29 18:30:00,
2013-04-29 14:35:00,79.5,65.4,29.91,SSW,207,3.6,3.6,62,0.00,,---,0.04,VWS V14.01,2013-04-29 18:35:00,
2013-04-29 14:40:00,79.3,65.2,29.91,SW,218,3.6,3.6,62,0.00,,---,0.04,VWS V14.01,2013-04-29 18:40:00,
2013-04-29 14:45:00,79.3,65.2,29.91,SE,130,5.4,5.4,62,0.00,,---,0.04,VWS V14.01,2013-04-29 18:45:00,
2013-04-29 14:50:00,79.3,65.2,29.91,SSE,161,0.0,0.0,62,0.00,,---,0.04,VWS V14.01,2013-04-29 18:50:00,
2013-04-29 14:55:00,79.3,65.7,29.91,ESE,112,3.1,6.3,63,0.00,,---,0.04,VWS V14.01,2013-04-29 18:55:00,
2013-04-29 15:00:00,79.3,65.2,29.91,SE,129,4.0,4.9,62,0.00,,---,0.04,VWS V14.01,2013-04-29 19:00:00,
2013-04-29 15:05:00,79.3,65.2,29.91,SW,229,4.0,4.0,62,0.00,,---,0.04,VWS V14.01,2013-04-29 19:05:00,
2013-04-29 15:10:00,79.2,64.6,29.91,SSW,203,3.6,3.6,61,0.00,,---,0.04,VWS V14.01,2013-04-29 19:10:00,
2013-04-29 15:15:00,79.3,65.2,29.88,SSW,196,3.1,4.0,62,0.00,,---,0.04,VWS V14.01,2013-04-29 19:15:00,
2013-04-29 15:20:00,79.3,65.2,29.88,SSE,151,2.2,2.2,62,0.00,,---,0.04,VWS V14.01,2013-04-29 19:20:00,
2013-04-29 15:25:00,79.3,64.7,29.88,SSE,159,2.2,2.2,61,0.00,,---,0.04,VWS V14.01,2013-04-29 19:25:00,
2013-04-29 15:30:00,79.5,64.9,29.88,South,189,4.0,4.0,61,0.00,,---,0.04,VWS V14.01,2013-04-29 19:30:00,
2013-04-29 15:35:00,79.5,64.9,29.88,SSE,156,4.0,4.9,61,0.00,,---,0.04,VWS V14.01,2013-04-29 19:35:00,
2013-04-29 15:40:00,79.5,64.9,29.88,SW,231,0.0,2.2,61,0.00,,---,0.04,VWS V14.01,2013-04-29 19:40:00,
2013-04-29 15:45:00,79.7,65.1,29.88,SW,216,4.0,4.9,61,0.00,,---,0.04,VWS V14.01,2013-04-29 19:45:00,
2013-04-29 15:50:00,79.7,64.6,29.88,South,183,2.7,2.7,60,0.00,,---,0.04,VWS V14.01,2013-04-29 19:50:00,
2013-04-29 15:55:00,79.7,64.6,29.88,South,172,2.7,3.1,60,0.00,,---,0.04,VWS V14.01,2013-04-29 19:55:00,
2013-04-29 16:00:00,79.9,65.2,29.88,SW,230,4.0,4.0,61,0.00,,---,0.04,VWS V14.01,2013-04-29 20:00:00,
2013-04-29 16:05:00,79.9,65.2,29.88,South,185,4.0,4.0,61,0.00,,---,0.04,VWS V14.01,2013-04-29 20:05:00,
2013-04-29 16:10:00,79.9,65.2,29.88,SE,139,0.0,0.0,61,0.00,,---,0.04,VWS V14.01,2013-04-29 20:10:00,
2013-04-29 16:15:00,79.9,65.2,29.88,SW,221,3.6,3.6,61,0.00,,---,0.04,VWS V14.01,2013-04-29 20:15:00,
2013-04-29 16:20:00,79.7,65.1,29.88,South,179,2.7,2.7,61,0.00,,---,0.04,VWS V14.01,2013-04-29 20:20:00,
2013-04-29 16:25:00,79.7,65.1,29.88,SSE,152,3.1,3.1,61,0.00,,---,0.04,VWS V14.01,2013-04-29 20:25:00,
2013-04-29 16:30:00,79.9,65.2,29.85,SSE,167,2.7,2.7,61,0.00,,---,0.04,VWS V14.01,2013-04-29 20:30:00,
2013-04-29 16:35:00,79.9,65.7,29.85,South,187,2.2,2.7,62,0.00,,---,0.04,VWS V14.01,2013-04-29 20:35:00,
2013-04-29 16:40:00,80.1,65.9,29.85,SW,234,5.4,5.4,62,0.00,,---,0.04,VWS V14.01,2013-04-29 20:40:00,
2013-04-29 16:45:00,80.1,65.4,29.85,SSW,200,2.2,2.2,61,0.00,,---,0.04,VWS V14.01,2013-04-29 20:45:00,
2013-04-29 16:50:00,79.9,65.2,29.85,South,185,3.1,3.1,61,0.00,,---,0.04,VWS V14.01,2013-04-29 20:50:00,
2013-04-29 16:55:00,79.7,65.5,29.85,WSW,237,2.2,3.1,62,0.00,,---,0.04,VWS V14.01,2013-04-29 20:55:00,
2013-04-29 17:00:00,79.7,65.5,29.85,SSW,196,2.7,2.7,62,0.00,,---,0.04,VWS V14.01,2013-04-29 21:00:00,
2013-04-29 17:05:00,79.5,65.4,29.85,South,178,2.7,2.7,62,0.00,,---,0.04,VWS V14.01,2013-04-29 21:05:00,
2013-04-29 17:10:00,79.5,65.4,29.85,SSW,203,0.0,0.0,62,0.00,,---,0.04,VWS V14.01,2013-04-29 21:10:00,
2013-04-29 17:15:00,79.5,65.4,29.85,SSW,197,3.1,3.6,62,0.00,,---,0.04,VWS V14.01,2013-04-29 21:15:00,
2013-04-29 17:20:00,79.5,65.4,29.85,SSW,200,2.7,5.4,62,0.00,,---,0.04,VWS V14.01,2013-04-29 21:20:00,
2013-04-29 17:25:00,79.5,65.4,29.85,South,191,2.2,2.2,62,0.00,,---,0.04,VWS V14.01,2013-04-29 21:25:00,
2013-04-29 17:30:00,79.9,65.7,29.85,SW,220,0.0,0.0,62,0.00,,---,0.04,VWS V14.01,2013-04-29 21:30:00,
2013-04-29 17:35:00,80.2,66.1,29.85,SSE,155,0.0,0.0,62,0.00,,---,0.04,VWS V14.01,2013-04-29 21:35:00,
2013-04-29 17:40:00,80.2,65.6,29.85,SSE,163,4.0,4.0,61,0.00,,---,0.04,VWS V14.01,2013-04-29 21:40:00,
2013-04-29 17:45:00,80.1,65.4,29.85,SW,220,4.0,5.4,61,0.00,,---,0.04,VWS V14.01,2013-04-29 21:45:00,
2013-04-29 17:50:00,80.1,65.4,29.85,West,274,4.0,4.9,61,0.00,,---,0.04,VWS V14.01,2013-04-29 21:50:00,
2013-04-29 17:55:00,79.7,65.5,29.85,SSW,205,2.7,5.4,62,0.00,,---,0.04,VWS V14.01,2013-04-29 21:55:00,
2013-04-29 18:00:00,79.5,65.8,29.85,SW,229,3.1,4.9,63,0.00,,---,0.04,VWS V14.01,2013-04-29 22:00:00,
2013-04-29 18:05:00,79.2,65.5,29.85,West,259,3.6,3.6,63,0.00,,---,0.04,VWS V14.01,2013-04-29 22:05:00,
2013-04-29 18:10:00,79.0,65.8,29.85,SSE,149,3.1,3.1,64,0.00,,---,0.04,VWS V14.01,2013-04-29 22:10:00,
2013-04-29 18:15:00,79.0,65.3,29.85,SSE,151,0.0,3.6,63,0.00,,---,0.04,VWS V14.01,2013-04-29 22:15:00,
2013-04-29 18:20:00,78.8,65.2,29.85,SSE,165,0.0,0.0,63,0.00,,---,0.04,VWS V14.01,2013-04-29 22:20:00,
2013-04-29 18:25:00,78.8,65.6,29.85,South,186,0.0,0.0,64,0.00,,---,0.04,VWS V14.01,2013-04-29 22:25:00,
2013-04-29 18:30:00,78.8,65.6,29.85,SSE,168,3.1,3.1,64,0.00,,---,0.04,VWS V14.01,2013-04-29 22:30:00,
2013-04-29 18:35:00,78.6,65.9,29.85,SSW,204,3.1,4.0,65,0.00,,---,0.04,VWS V14.01,2013-04-29 22:35:00,
2013-04-29 18:40:00,78.4,66.2,29.85,SE,141,3.1,3.1,66,0.00,,---,0.04,VWS V14.01,2013-04-29 22:40:00,
2013-04-29 18:45:00,78.4,66.2,29.85,SSE,160,4.0,4.0,66,0.00,,---,0.04,VWS V14.01,2013-04-29 22:45:00,
2013-04-29 18:50:00,78.6,66.8,29.85,SSW,197,0.0,0.0,67,0.00,,---,0.04,VWS V14.01,2013-04-29 22:50:00,
2013-04-29 18:55:00,78.4,66.6,29.85,SW,232,3.1,3.1,67,0.00,,---,0.04,VWS V14.01,2013-04-29 22:55:00,
2013-04-29 19:00:00,78.3,66.4,29.88,SSE,163,5.8,5.8,67,0.00,,---,0.04,VWS V14.01,2013-04-29 23:00:00,
2013-04-29 19:05:00,78.1,66.7,29.88,SW,233,0.0,3.1,68,0.00,,---,0.04,VWS V14.01,2013-04-29 23:05:00,
2013-04-29 19:10:00,77.7,66.3,29.88,WSW,249,2.7,4.0,68,0.00,,---,0.04,VWS V14.01,2013-04-29 23:10:00,
2013-04-29 19:15:00,77.5,66.6,29.88,SW,224,0.0,3.1,69,0.00,,---,0.04,VWS V14.01,2013-04-29 23:15:00,
2013-04-29 19:20:00,77.4,66.8,29.88,SSE,149,2.2,2.7,70,0.00,,---,0.04,VWS V14.01,2013-04-29 23:20:00,
2013-04-29 19:25:00,77.2,67.1,29.88,SSW,197,0.0,6.3,71,0.00,,---,0.04,VWS V14.01,2013-04-29 23:25:00,
2013-04-29 19:30:00,77.2,67.5,29.88,SSW,213,4.9,4.9,72,0.00,,---,0.04,VWS V14.01,2013-04-29 23:30:00,
2013-04-29 19:35:00,77.0,67.3,29.88,ESE,116,2.7,2.7,72,0.00,,---,0.04,VWS V14.01,2013-04-29 23:35:00,
2013-04-29 19:40:00,77.0,67.7,29.88,SSE,167,0.0,2.2,73,0.00,,---,0.04,VWS V14.01,2013-04-29 23:40:00,
2013-04-29 19:45:00,76.8,67.9,29.88,SSW,210,2.7,2.7,74,0.00,,---,0.04,VWS V14.01,2013-04-29 23:45:00,
2013-04-29 19:49:00,76.6,67.7,29.88,South,175,2.7,2.7,74,0.00,,---,0.04,VWS V14.01,2013-04-29 23:49:00,
2013-04-29 19:55:00,76.5,67.9,29.88,South,176,2.7,4.0,75,0.00,,---,0.04,VWS V14.01,2013-04-29 23:55:00,
2013-04-29 19:59:00,76.5,67.9,29.88,SSW,200,0.0,4.0,75,0.00,,---,0.04,VWS V14.01,2013-04-29 23:59:00,
2013-04-29 20:05:00,76.3,67.8,29.88,South,173,3.6,3.6,75,0.00,,---,0.04,VWS V14.01,2013-04-30 00:05:00,
2013-04-29 20:09:00,76.3,68.2,29.88,South,180,0.0,0.0,76,0.00,,---,0.04,VWS V14.01,2013-04-30 00:09:00,
2013-04-29 20:14:00,76.1,68.4,29.88,South,172,0.0,3.6,77,0.00,,---,0.04,VWS V14.01,2013-04-30 00:14:00,
2013-04-29 20:19:00,76.1,68.4,29.88,SSW,208,0.0,0.0,77,0.00,,---,0.04,VWS V14.01,2013-04-30 00:19:00,
2013-04-29 20:24:00,75.9,68.2,29.88,South,173,0.0,0.0,77,0.00,,---,0.04,VWS V14.01,2013-04-30 00:24:00,
2013-04-29 20:29:00,75.7,68.4,29.88,South,172,0.0,0.0,78,0.00,,---,0.04,VWS V14.01,2013-04-30 00:29:00,
2013-04-29 20:34:00,75.7,68.4,29.88,South,173,0.0,0.0,78,0.00,,---,0.04,VWS V14.01,2013-04-30 00:34:00,
2013-04-29 20:39:00,75.6,68.6,29.88,South,172,0.0,0.0,79,0.00,,---,0.04,VWS V14.01,2013-04-30 00:39:00,
2013-04-29 20:44:00,75.4,68.4,29.88,South,172,0.0,0.0,79,0.00,,---,0.04,VWS V14.01,2013-04-30 00:44:00,
2013-04-29 20:49:00,75.4,68.4,29.88,South,173,0.0,0.0,79,0.00,,---,0.04,VWS V14.01,2013-04-30 00:49:00,
2013-04-29 20:54:00,75.4,68.8,29.88,South,174,0.0,0.0,80,0.00,,---,0.04,VWS V14.01,2013-04-30 00:54:00,
2013-04-29 20:59:00,75.2,68.6,29.88,South,175,0.0,0.0,80,0.00,,---,0.04,VWS V14.01,2013-04-30 00:59:00,
2013-04-29 21:04:00,75.2,69.0,29.88,South,174,0.0,0.0,81,0.00,,---,0.04,VWS V14.01,2013-04-30 01:04:00,
2013-04-29 21:09:00,75.0,68.8,29.88,South,175,0.0,0.0,81,0.00,,---,0.04,VWS V14.01,2013-04-30 01:09:00,
2013-04-29 21:14:00,74.7,68.4,29.88,South,174,0.0,0.0,81,0.00,,---,0.04,VWS V14.01,2013-04-30 01:14:00,
2013-04-29 21:19:00,74.8,69.0,29.88,South,174,0.0,0.0,82,0.00,,---,0.04,VWS V14.01,2013-04-30 01:19:00,
2013-04-29 21:24:00,74.7,69.2,29.88,South,175,0.0,0.0,83,0.00,,---,0.04,VWS V14.01,2013-04-30 01:24:00,
2013-04-29 21:29:00,74.5,69.3,29.88,SW,221,0.0,0.0,84,0.00,,---,0.04,VWS V14.01,2013-04-30 01:29:00,
2013-04-29 21:34:00,74.3,69.2,29.88,SW,222,0.0,0.0,84,0.00,,---,0.04,VWS V14.01,2013-04-30 01:34:00,
2013-04-29 21:39:00,74.1,69.3,29.88,SW,221,0.0,0.0,85,0.00,,---,0.04,VWS V14.01,2013-04-30 01:39:00,
2013-04-29 21:44:00,74.1,69.3,29.88,SW,221,0.0,0.0,85,0.00,,---,0.04,VWS V14.01,2013-04-30 01:44:00,
2013-04-29 21:49:00,74.1,69.7,29.88,SW,222,0.0,0.0,86,0.00,,---,0.04,VWS V14.01,2013-04-30 01:49:00,
2013-04-29 21:54:00,74.1,69.7,29.88,SW,221,0.0,0.0,86,0.00,,---,0.04,VWS V14.01,2013-04-30 01:54:00,
2013-04-29 21:59:00,74.1,69.7,29.88,SW,221,0.0,0.0,86,0.00,,---,0.04,VWS V14.01,2013-04-30 01:59:00,
2013-04-29 22:04:00,73.9,69.5,29.88,SW,222,0.0,0.0,86,0.00,,---,0.04,VWS V14.01,2013-04-30 02:04:00,
2013-04-29 22:09:00,73.8,69.3,29.88,SW,221,0.0,0.0,86,0.00,,---,0.04,VWS V14.01,2013-04-30 02:09:00,
2013-04-29 22:14:00,73.6,69.5,29.88,SW,221,0.0,0.0,87,0.00,,---,0.04,VWS V14.01,2013-04-30 02:14:00,
2013-04-29 22:19:00,73.4,69.6,29.88,SW,222,0.0,0.0,88,0.00,,---,0.04,VWS V14.01,2013-04-30 02:19:00,
2013-04-29 22:24:00,73.2,69.8,29.88,SW,221,0.0,0.0,89,0.00,,---,0.04,VWS V14.01,2013-04-30 02:24:00,
2013-04-29 22:29:00,73.0,69.6,29.88,SW,222,0.0,0.0,89,0.00,,---,0.04,VWS V14.01,2013-04-30 02:29:00,
2013-04-29 22:34:00,72.9,69.8,29.88,SW,222,0.0,0.0,90,0.00,,---,0.04,VWS V14.01,2013-04-30 02:34:00,
2013-04-29 22:40:00,72.7,69.9,29.88,SW,221,0.0,0.0,91,0.00,,---,0.04,VWS V14.01,2013-04-30 02:40:00,
2013-04-29 22:45:00,72.7,69.9,29.88,SW,221,0.0,0.0,91,0.00,,---,0.04,VWS V14.01,2013-04-30 02:45:00,
2013-04-29 22:50:00,72.9,70.4,29.88,SW,222,0.0,0.0,92,0.00,,---,0.04,VWS V14.01,2013-04-30 02:50:00,
2013-04-29 22:55:00,72.9,70.4,29.88,SW,222,0.0,0.0,92,0.00,,---,0.04,VWS V14.01,2013-04-30 02:55:00,
2013-04-29 23:00:00,72.9,70.7,29.91,SW,221,0.0,0.0,93,0.00,,---,0.04,VWS V14.01,2013-04-30 03:00:00,
2013-04-29 23:05:00,72.9,70.7,29.91,SW,222,0.0,0.0,93,0.00,,---,0.04,VWS V14.01,2013-04-30 03:05:00,
2013-04-29 23:10:00,72.9,70.7,29.91,SW,222,0.0,0.0,93,0.00,,---,0.04,VWS V14.01,2013-04-30 03:10:00,
2013-04-29 23:15:00,72.9,70.7,29.91,SW,222,0.0,0.0,93,0.00,,---,0.04,VWS V14.01,2013-04-30 03:15:00,
2013-04-29 23:20:00,72.9,70.7,29.91,SW,222,0.0,0.0,93,0.00,,---,0.04,VWS V14.01,2013-04-30 03:20:00,
2013-04-29 23:25:00,72.7,70.5,29.91,SW,222,0.0,0.0,93,0.00,,---,0.04,VWS V14.01,2013-04-30 03:25:00,
2013-04-29 23:30:00,72.5,70.7,29.91,SW,222,0.0,0.0,94,0.00,,---,0.04,VWS V14.01,2013-04-30 03:30:00,
2013-04-29 23:35:00,72.3,70.8,29.91,SW,221,0.0,0.0,95,0.00,,---,0.04,VWS V14.01,2013-04-30 03:35:00,
2013-04-29 23:40:00,72.3,70.8,29.91,SW,222,0.0,0.0,95,0.00,,---,0.04,VWS V14.01,2013-04-30 03:40:00,
2013-04-29 23:45:00,72.3,71.1,29.91,SW,222,0.0,0.0,96,0.00,,---,0.04,VWS V14.01,2013-04-30 03:45:00,
2013-04-29 23:50:00,72.3,71.4,29.91,SW,222,0.0,0.0,97,0.00,,---,0.04,VWS V14.01,2013-04-30 03:50:00,
2013-04-29 23:55:00,72.1,71.6,29.91,SW,222,0.0,0.0,98,0.00,,---,0.04,VWS V14.01,2013-04-30 03:55:00,